createdAt,value
2019-04-07T00:01:15.930Z,52.24
2019-04-07T00:03:49.478Z,52.35
2019-04-07T00:06:24.217Z,52.46
2019-04-07T00:08:59.234Z,52.70
2019-04-07T00:11:33.726Z,52.78
2019-04-07T00:14:07.139Z,52.79
2019-04-07T00:16:41.614Z,52.72
2019-04-07T00:19:16.277Z,52.72
2019-04-07T00:21:50.770Z,52.88
2019-04-07T00:24:25.276Z,52.90
2019-04-07T00:26:59.884Z,53.04
2019-04-07T00:29:34.392Z,53.37
2019-04-07T00:32:08.801Z,53.47
2019-04-07T00:34:42.260Z,53.50
2019-04-07T00:37:17.105Z,53.75
2019-04-07T00:39:51.787Z,53.98
2019-04-07T00:42:24.806Z,54.13
2019-04-07T00:44:58.951Z,54.30
2019-04-07T00:47:33.931Z,54.27
2019-04-07T00:50:09.207Z,54.37
2019-04-07T00:52:43.868Z,54.54
2019-04-07T00:55:16.753Z,54.54
2019-04-07T00:57:51.651Z,54.88
2019-04-07T01:00:28.103Z,54.78
2019-04-07T01:03:02.944Z,55.01
2019-04-07T01:05:40.526Z,55.01
2019-04-07T01:08:14.007Z,54.99
2019-04-07T01:10:48.302Z,54.96
2019-04-07T01:13:23.113Z,54.96
2019-04-07T01:15:58.036Z,54.98
2019-04-07T01:18:35.925Z,54.98
2019-04-07T01:21:10.309Z,55.14
2019-04-07T01:23:44.681Z,55.36
2019-04-07T01:26:19.110Z,55.42
2019-04-07T01:28:54.480Z,55.51
2019-04-07T01:31:29.941Z,55.60
2019-04-07T01:34:04.397Z,55.60
2019-04-07T01:36:39.114Z,55.68
2019-04-07T01:39:15.250Z,55.67
2019-04-07T01:42:01.626Z,55.67
2019-04-07T01:44:47.299Z,55.99
2019-04-07T01:47:34.342Z,55.91
2019-04-07T01:50:46.058Z,56.00
2019-04-07T01:53:38.605Z,56.00
2019-04-07T01:56:33.771Z,55.88
2019-04-07T01:59:24.238Z,55.88
2019-04-07T02:02:17.539Z,55.72
2019-04-07T02:05:09.727Z,55.72
2019-04-07T02:08:04.577Z,56.10
2019-04-07T02:11:59.469Z,56.44
2019-04-07T02:14:53.322Z,56.32
2019-04-07T02:17:39.276Z,56.45
2019-04-07T02:21:28.730Z,56.33
2019-04-07T02:24:20.342Z,56.25
2019-04-07T02:27:19.495Z,56.63
2019-04-07T02:30:19.629Z,56.88
2019-04-07T02:33:12.734Z,56.88
2019-04-07T02:36:26.427Z,56.84
2019-04-07T02:39:15.270Z,56.70
2019-04-07T02:42:11.561Z,56.70
2019-04-07T02:45:10.998Z,56.84
2019-04-07T02:48:05.157Z,56.84
2019-04-07T02:50:58.730Z,57.15
2019-04-07T02:53:49.172Z,56.92
2019-04-07T02:56:48.500Z,57.03
2019-04-07T02:59:31.887Z,57.11
2019-04-07T03:02:16.077Z,57.21
2019-04-07T03:05:26.540Z,57.28
2019-04-07T03:08:22.633Z,57.41
2019-04-07T03:11:29.072Z,57.38
2019-04-07T03:14:12.416Z,57.66
2019-04-07T03:17:11.849Z,57.70
2019-04-07T03:19:56.589Z,57.82
2019-04-07T03:23:09.265Z,58.02
2019-04-07T03:26:05.613Z,58.10
2019-04-07T03:29:08.576Z,58.11
2019-04-07T03:32:23.727Z,58.11
2019-04-07T03:35:15.979Z,58.56
2019-04-07T03:38:20.657Z,58.24
2019-04-07T03:41:11.962Z,58.24
2019-04-07T03:44:09.256Z,58.52
2019-04-07T03:48:27.107Z,58.47
2019-04-07T03:51:37.762Z,58.38
2019-04-07T03:54:25.622Z,58.22
2019-04-07T03:57:21.617Z,58.41
2019-04-07T04:00:07.120Z,58.10
2019-04-07T04:03:06.644Z,58.15
2019-04-07T04:06:09.135Z,58.35
2019-04-07T04:08:58.725Z,58.51
2019-04-07T04:11:47.647Z,58.27
2019-04-07T04:14:43.594Z,58.44
2019-04-07T04:17:18.333Z,58.70
2019-04-07T04:19:52.873Z,58.68
2019-04-07T04:22:26.270Z,58.32
2019-04-07T04:25:01.016Z,58.43
2019-04-07T04:27:36.770Z,58.43
2019-04-07T04:30:12.015Z,58.79
2019-04-07T04:32:47.662Z,58.82
2019-04-07T04:35:22.456Z,58.82
2019-04-07T04:37:56.963Z,58.67
2019-04-07T04:40:32.111Z,58.33
2019-04-07T04:43:07.166Z,58.14
2019-04-07T04:45:41.847Z,58.35
2019-04-07T04:48:16.093Z,58.58
2019-04-07T04:50:50.534Z,58.86
2019-04-07T04:53:25.658Z,58.86
2019-04-07T04:56:00.905Z,58.86
2019-04-07T04:58:36.051Z,58.58
2019-04-07T05:01:10.685Z,58.49
2019-04-07T05:03:45.071Z,58.49
2019-04-07T05:06:19.901Z,58.65
2019-04-07T05:08:54.638Z,58.79
2019-04-07T05:11:29.327Z,58.79
2019-04-07T05:14:03.874Z,58.61
2019-04-07T05:16:37.266Z,58.57
2019-04-07T05:19:11.621Z,58.16
2019-04-07T05:21:46.976Z,58.16
2019-04-07T05:24:22.222Z,58.46
2019-04-07T05:26:57.332Z,58.46
2019-04-07T05:29:32.478Z,58.52
2019-04-07T05:32:07.974Z,58.32
2019-04-07T05:34:42.787Z,58.18
2019-04-07T05:37:16.655Z,58.18
2019-04-07T05:39:51.597Z,58.18
2019-04-07T05:42:26.231Z,58.11
2019-04-07T05:45:00.740Z,58.29
2019-04-07T05:47:33.936Z,58.33
2019-04-07T05:50:07.578Z,57.75
2019-04-07T05:52:42.199Z,57.67
2019-04-07T05:55:20.644Z,57.50
2019-04-07T05:57:53.293Z,57.17
2019-04-07T06:00:28.568Z,56.98
2019-04-07T06:03:07.129Z,55.82
2019-04-07T06:05:39.991Z,55.54
2019-04-07T06:08:25.991Z,54.25
2019-04-07T06:10:51.079Z,54.25
2019-04-07T06:13:25.702Z,53.54
2019-04-07T06:16:00.071Z,53.10
2019-04-07T06:18:34.686Z,52.10
2019-04-07T06:21:09.325Z,52.10
2019-04-07T06:23:44.240Z,52.25
2019-04-07T06:26:18.811Z,51.85
2019-04-07T06:28:55.918Z,50.55
2019-04-07T06:31:31.355Z,50.85
2019-04-07T06:34:04.215Z,50.85
2019-04-07T06:36:38.720Z,50.15
2019-04-07T06:39:15.589Z,50.14
2019-04-07T06:41:49.267Z,49.35
2019-04-07T06:44:24.291Z,49.52
2019-04-07T06:47:08.565Z,49.06
2019-04-07T06:50:02.165Z,48.75
2019-04-07T06:53:17.882Z,47.75
2019-04-07T06:56:09.903Z,47.70
2019-04-07T06:59:15.138Z,44.96
2019-04-07T07:02:16.052Z,43.90
2019-04-07T07:05:08.482Z,43.54
2019-04-07T07:07:58.744Z,43.54
2019-04-07T07:10:55.417Z,41.79
2019-04-07T07:13:42.939Z,41.23
2019-04-07T07:16:28.758Z,39.50
2019-04-07T07:19:20.593Z,40.14
2019-04-07T07:22:15.988Z,39.17
2019-04-07T07:24:50.369Z,38.70
2019-04-07T07:27:25.128Z,38.70
2019-04-07T07:29:59.267Z,38.24
2019-04-07T07:32:36.977Z,37.14
2019-04-07T07:35:12.692Z,37.14
2019-04-07T07:37:44.685Z,37.14
2019-04-07T07:40:19.291Z,36.31
2019-04-07T07:42:56.669Z,34.73
2019-04-07T07:45:30.723Z,34.73
2019-04-07T07:48:04.196Z,35.29
2019-04-07T07:50:40.440Z,34.08
2019-04-07T07:53:14.876Z,34.08
2019-04-07T07:55:49.715Z,33.60
2019-04-07T07:58:27.922Z,32.62
2019-04-07T08:01:01.449Z,31.79
2019-04-07T08:03:36.111Z,31.73
2019-04-07T08:06:10.820Z,30.39
2019-04-07T08:08:47.485Z,30.39
2019-04-07T08:11:21.698Z,28.92
2019-04-07T08:13:56.759Z,28.92
2019-04-07T08:16:31.524Z,27.67
2019-04-07T08:19:08.408Z,26.65
2019-04-07T08:21:44.313Z,25.97
2019-04-07T08:24:19.155Z,24.65
2019-04-07T08:26:56.279Z,23.83
2019-04-07T08:29:30.140Z,22.91
2019-04-07T08:32:05.496Z,22.85
2019-04-07T08:34:40.415Z,22.33
2019-04-07T08:37:15.492Z,21.68
2019-04-07T08:39:50.806Z,21.03
2019-04-07T08:42:25.318Z,21.03
2019-04-07T08:45:00.713Z,20.72
2019-04-07T08:47:36.121Z,20.44
2019-04-07T08:50:11.133Z,20.44
2019-04-07T08:52:45.666Z,20.26
2019-04-07T08:55:20.455Z,20.26
2019-04-07T08:57:55.275Z,19.67
2019-04-07T09:00:30.283Z,19.92
2019-04-07T09:03:11.447Z,19.66
2019-04-07T09:06:53.875Z,18.98
2019-04-07T09:09:34.079Z,18.98
2019-04-07T09:12:06.009Z,18.99
2019-04-07T09:14:41.106Z,18.75
2019-04-07T09:17:43.726Z,18.75
2019-04-07T09:20:31.330Z,18.88
2019-04-07T09:23:25.705Z,18.96
2019-04-07T09:26:11.758Z,20.05
2019-04-07T09:29:13.305Z,20.05
2019-04-07T09:31:54.099Z,19.94
2019-04-07T09:34:36.288Z,19.01
2019-04-07T09:37:27.234Z,19.01
2019-04-07T09:40:39.396Z,19.09
2019-04-07T09:43:23.723Z,19.09
2019-04-07T09:46:14.692Z,18.68
2019-04-07T09:49:05.663Z,18.29
2019-04-07T09:52:04.556Z,19.05
2019-04-07T09:55:01.154Z,18.31
2019-04-07T09:57:46.192Z,21.18
2019-04-07T10:00:33.941Z,22.75
2019-04-07T10:03:16.348Z,22.75
2019-04-07T10:06:18.425Z,23.81
2019-04-07T10:09:11.678Z,23.65
2019-04-07T10:12:08.185Z,24.16
2019-04-07T10:15:02.147Z,24.95
2019-04-07T10:17:49.554Z,25.20
2019-04-07T10:20:35.783Z,24.53
2019-04-07T10:23:21.967Z,26.50
2019-04-07T10:26:14.589Z,26.17
2019-04-07T10:28:55.713Z,26.55
2019-04-07T10:31:53.388Z,25.90
2019-04-07T10:34:52.285Z,26.11
2019-04-07T10:37:45.436Z,26.39
2019-04-07T10:40:34.733Z,26.88
2019-04-07T10:43:31.365Z,27.47
2019-04-07T10:46:30.888Z,26.98
2019-04-07T10:49:23.737Z,26.32
2019-04-07T10:52:14.753Z,25.18
2019-04-07T10:55:07.646Z,24.17
2019-04-07T10:57:54.889Z,22.29
2019-04-07T11:00:41.210Z,20.30
2019-04-07T11:03:32.934Z,20.88
2019-04-07T11:06:32.607Z,18.73
2019-04-07T11:09:42.846Z,18.73
2019-04-07T11:12:34.711Z,17.83
2019-04-07T11:15:32.968Z,17.41
2019-04-07T11:18:25.367Z,16.00
2019-04-07T11:21:18.241Z,16.00
2019-04-07T11:24:12.206Z,16.20
2019-04-07T11:27:17.948Z,16.30
2019-04-07T11:30:14.279Z,15.45
2019-04-07T11:33:07.775Z,14.68
2019-04-07T11:35:58.547Z,14.68
2019-04-07T11:38:58.508Z,14.31
2019-04-07T11:41:51.472Z,13.79
2019-04-07T11:44:51.497Z,14.17
2019-04-07T11:47:36.889Z,14.00
2019-04-07T11:50:36.297Z,13.95
2019-04-07T11:53:35.895Z,13.80
2019-04-07T11:56:29.745Z,13.45
2019-04-07T11:59:33.786Z,13.23
2019-04-07T12:02:21.592Z,13.53
2019-04-07T12:05:14.793Z,13.97
2019-04-07T12:08:14.075Z,13.97
2019-04-07T12:11:07.270Z,14.81
2019-04-07T12:14:06.306Z,14.81
2019-04-07T12:17:15.078Z,14.27
2019-04-07T12:20:08.230Z,14.47
2019-04-07T12:22:49.149Z,14.47
2019-04-07T12:25:43.327Z,15.89
2019-04-07T12:28:36.524Z,16.54
2019-04-07T12:31:21.506Z,18.20
2019-04-07T12:34:09.575Z,17.59
2019-04-07T12:37:07.891Z,16.23
2019-04-07T12:39:53.325Z,17.35
2019-04-07T12:42:44.275Z,16.88
2019-04-07T12:45:37.011Z,15.17
2019-04-07T12:48:19.574Z,14.33
2019-04-07T12:51:24.662Z,16.63
2019-04-07T12:54:08.990Z,17.84
2019-04-07T12:57:02.555Z,17.44
2019-04-07T12:59:41.700Z,16.15
2019-04-07T13:02:24.056Z,16.15
2019-04-07T13:05:34.517Z,15.58
2019-04-07T13:08:33.727Z,15.58
2019-04-07T13:11:33.801Z,14.32
2019-04-07T13:14:40.072Z,16.07
2019-04-07T13:17:41.024Z,16.07
2019-04-07T13:20:33.349Z,19.78
2019-04-07T13:23:12.399Z,19.78
2019-04-07T13:26:05.634Z,20.77
2019-04-07T13:28:48.917Z,20.77
2019-04-07T13:31:34.651Z,20.73
2019-04-07T13:34:24.465Z,20.73
2019-04-07T13:37:20.273Z,20.41
2019-04-07T13:40:05.032Z,20.48
2019-04-07T13:43:04.380Z,22.22
2019-04-07T13:45:57.582Z,22.22
2019-04-07T13:48:58.833Z,20.58
2019-04-07T13:51:51.377Z,16.83
2019-04-07T13:54:40.382Z,16.83
2019-04-07T13:57:38.259Z,15.51
2019-04-07T14:00:38.065Z,15.90
2019-04-07T14:03:26.681Z,18.31
2019-04-07T14:06:25.668Z,17.67
2019-04-07T14:09:08.291Z,17.19
2019-04-07T14:12:10.107Z,17.12
2019-04-07T14:15:05.290Z,19.30
2019-04-07T14:17:52.682Z,19.30
2019-04-07T14:20:55.166Z,22.04
2019-04-07T14:23:42.596Z,22.04
2019-04-07T14:26:23.751Z,21.41
2019-04-07T14:29:16.987Z,19.82
2019-04-07T14:32:02.116Z,19.82
2019-04-07T14:34:56.527Z,21.04
2019-04-07T14:37:46.224Z,22.23
2019-04-07T14:40:38.788Z,22.41
2019-04-07T14:43:24.733Z,22.26
2019-04-07T14:46:18.296Z,22.56
2019-04-07T14:49:13.490Z,21.80
2019-04-07T14:52:03.945Z,22.08
2019-04-07T14:54:58.006Z,20.34
2019-04-07T14:57:50.012Z,22.04
2019-04-07T15:00:51.520Z,23.00
2019-04-07T15:03:26.675Z,23.20
2019-04-07T15:06:01.947Z,23.91
2019-04-07T15:08:51.955Z,23.54
2019-04-07T15:11:44.557Z,24.71
2019-04-07T15:14:19.687Z,25.67
2019-04-07T15:16:53.451Z,26.11
2019-04-07T15:19:28.820Z,26.11
2019-04-07T15:22:03.329Z,26.40
2019-04-07T15:24:38.732Z,27.17
2019-04-07T15:27:14.404Z,27.17
2019-04-07T15:29:49.223Z,27.18
2019-04-07T15:32:26.631Z,27.29
2019-04-07T15:35:00.275Z,27.01
2019-04-07T15:37:35.756Z,26.85
2019-04-07T15:40:12.003Z,26.21
2019-04-07T15:42:50.427Z,24.70
2019-04-07T15:45:24.543Z,24.70
2019-04-07T15:48:00.608Z,25.45
2019-04-07T15:50:34.338Z,26.24
2019-04-07T15:53:09.295Z,26.47
2019-04-07T15:55:50.958Z,26.60
2019-04-07T15:58:20.481Z,26.94
2019-04-07T16:00:54.942Z,26.92
2019-04-07T16:03:29.871Z,27.81
2019-04-07T16:06:05.499Z,26.53
2019-04-07T16:08:39.388Z,25.67
2019-04-07T16:11:16.436Z,26.66
2019-04-07T16:13:50.282Z,27.94
2019-04-07T16:16:26.863Z,27.94
2019-04-07T16:19:01.445Z,28.73
2019-04-07T16:21:39.284Z,28.60
2019-04-07T16:24:13.561Z,28.87
2019-04-07T16:26:48.356Z,29.33
2019-04-07T16:29:23.530Z,30.32
2019-04-07T16:31:58.691Z,30.46
2019-04-07T16:34:32.016Z,30.05
2019-04-07T16:37:04.981Z,30.67
2019-04-07T16:39:39.376Z,30.68
2019-04-07T16:42:15.326Z,30.68
2019-04-07T16:44:50.521Z,30.81
2019-04-07T16:47:29.274Z,31.08
2019-04-07T16:50:01.289Z,31.83
2019-04-07T16:52:37.065Z,31.92
2019-04-07T16:55:41.750Z,32.42
2019-04-07T16:58:15.733Z,32.68
2019-04-07T17:00:49.848Z,33.11
2019-04-07T17:03:24.110Z,33.54
2019-04-07T17:06:00.098Z,34.06
2019-04-07T17:08:34.624Z,34.47
2019-04-07T17:11:09.676Z,34.47
2019-04-07T17:13:44.249Z,34.57
2019-04-07T17:16:22.566Z,34.57
2019-04-07T17:18:56.186Z,35.27
2019-04-07T17:23:36.682Z,35.70
2019-04-07T17:26:13.782Z,35.72
2019-04-07T17:28:48.531Z,36.13
2019-04-07T17:31:23.990Z,36.25
2019-04-07T17:33:58.678Z,37.29
2019-04-07T17:36:33.264Z,37.29
2019-04-07T17:39:28.360Z,37.22
2019-04-07T17:42:03.459Z,37.26
2019-04-07T17:44:55.604Z,37.26
2019-04-07T17:48:07.299Z,37.44
2019-04-07T17:50:51.284Z,37.66
2019-04-07T17:53:53.960Z,38.02
2019-04-07T17:56:40.664Z,38.19
2019-04-07T17:59:32.438Z,38.19
2019-04-07T18:02:24.807Z,38.30
2019-04-07T18:05:12.741Z,38.47
2019-04-07T18:07:59.293Z,38.47
2019-04-07T18:11:02.342Z,38.79
2019-04-07T18:14:14.278Z,38.83
2019-04-07T18:17:16.320Z,39.02
2019-04-07T18:19:59.294Z,39.23
2019-04-07T18:22:47.647Z,39.56
2019-04-07T18:25:39.670Z,39.63
2019-04-07T18:28:50.914Z,39.78
2019-04-07T18:31:41.982Z,39.89
2019-04-07T18:34:41.832Z,40.26
2019-04-07T18:37:44.252Z,40.26
2019-04-07T18:40:29.667Z,40.47
2019-04-07T18:45:12.200Z,40.39
2019-04-07T18:48:08.099Z,40.52
2019-04-07T18:51:05.077Z,40.75
2019-04-07T18:53:49.638Z,40.80
2019-04-07T18:56:54.430Z,41.13
2019-04-07T18:59:33.495Z,41.20
2019-04-07T19:02:25.334Z,41.53
2019-04-07T19:05:18.593Z,41.78
2019-04-07T19:08:12.720Z,41.69
2019-04-07T19:11:17.438Z,41.83
2019-04-07T19:14:31.514Z,42.43
2019-04-07T19:17:25.531Z,42.46
2019-04-07T19:20:09.495Z,42.92
2019-04-07T19:23:08.761Z,42.92
2019-04-07T19:25:59.335Z,43.13
2019-04-07T19:28:56.072Z,43.24
2019-04-07T19:31:58.503Z,43.45
2019-04-07T19:35:07.690Z,43.45
2019-04-07T19:38:00.575Z,43.22
2019-04-07T19:40:51.134Z,43.58
2019-04-07T19:43:44.645Z,43.08
2019-04-07T19:46:44.181Z,43.08
2019-04-07T19:49:39.158Z,43.00
2019-04-07T19:52:50.769Z,43.24
2019-04-07T19:55:34.621Z,43.09
2019-04-07T19:58:39.303Z,43.09
2019-04-07T20:01:29.066Z,43.09
2019-04-07T20:04:33.417Z,43.15
2019-04-07T20:07:33.152Z,43.23
2019-04-07T20:10:20.337Z,43.16
2019-04-07T20:13:15.644Z,43.68
2019-04-07T20:15:57.821Z,43.45
2019-04-07T20:18:58.204Z,43.88
2019-04-07T20:21:54.707Z,43.61
2019-04-07T20:24:59.433Z,44.19
2019-04-07T20:27:49.501Z,44.50
2019-04-07T20:30:35.596Z,44.50
2019-04-07T20:33:38.095Z,44.35
2019-04-07T20:36:38.349Z,44.67
2019-04-07T20:39:34.146Z,44.96
2019-04-07T20:42:16.986Z,44.99
2019-04-07T20:45:15.465Z,44.98
2019-04-07T20:48:05.304Z,45.43
2019-04-07T20:51:17.862Z,46.12
2019-04-07T20:54:12.281Z,46.66
2019-04-07T20:57:09.597Z,46.66
2019-04-07T21:00:05.122Z,46.62
2019-04-07T21:03:06.449Z,47.34
2019-04-07T21:06:00.758Z,47.34
2019-04-07T21:09:04.445Z,47.43
2019-04-07T21:12:12.763Z,46.85
2019-04-07T21:15:21.284Z,46.25
2019-04-07T21:17:59.299Z,46.20
2019-04-07T21:22:57.696Z,46.85
2019-04-07T21:25:52.073Z,47.58
2019-04-07T21:28:44.642Z,47.35
2019-04-07T21:31:46.746Z,47.18
2019-04-07T21:34:42.280Z,46.83
2019-04-07T21:37:51.835Z,46.36
2019-04-07T21:40:39.506Z,46.36
2019-04-07T21:43:32.573Z,46.76
2019-04-07T21:46:24.004Z,47.78
2019-04-07T21:49:20.966Z,47.59
2019-04-07T21:52:23.039Z,47.89
2019-04-07T21:55:30.841Z,48.13
2019-04-07T21:58:19.574Z,48.13
2019-04-07T22:01:16.584Z,48.52
2019-04-07T22:04:25.306Z,48.72
2019-04-07T22:07:31.549Z,49.00
2019-04-07T22:10:05.994Z,48.97
2019-04-07T22:12:41.057Z,49.06
2019-04-07T22:15:15.831Z,49.21
2019-04-07T22:17:50.691Z,49.21
2019-04-07T22:20:25.109Z,48.80
2019-04-07T22:23:02.430Z,48.63
2019-04-07T22:25:48.254Z,48.63
2019-04-07T22:28:27.648Z,48.46
2019-04-07T22:30:58.026Z,48.36
2019-04-07T22:33:33.444Z,48.75
2019-04-07T22:36:11.256Z,48.82
2019-04-07T22:38:44.425Z,48.47
2019-04-07T22:41:19.735Z,48.29
2019-04-07T22:43:55.291Z,48.75
2019-04-07T22:46:33.151Z,48.75
2019-04-07T22:49:07.736Z,48.95
2019-04-07T22:51:44.518Z,49.07
2019-04-07T22:54:18.837Z,49.07
2019-04-07T22:59:39.821Z,49.69
2019-04-07T23:02:13.730Z,50.02
2019-04-07T23:04:47.929Z,50.14
2019-04-07T23:07:22.273Z,50.21
2019-04-07T23:11:08.490Z,50.66
2019-04-07T23:13:43.792Z,50.72
2019-04-07T23:16:17.964Z,50.83
2019-04-07T23:18:54.090Z,50.54
2019-04-07T23:21:28.621Z,51.45
2019-04-07T23:24:03.380Z,51.45
2019-04-07T23:26:38.389Z,51.42
2019-04-07T23:29:12.804Z,51.97
2019-04-07T23:31:47.102Z,51.84
2019-04-07T23:34:21.657Z,52.44
2019-04-07T23:36:55.940Z,52.44
2019-04-07T23:39:29.262Z,51.98
2019-04-07T23:44:13.124Z,52.93
2019-04-07T23:46:47.753Z,52.60
2019-04-07T23:49:22.524Z,52.60
2019-04-07T23:51:56.944Z,52.79
2019-04-07T23:54:29.781Z,52.82
2019-04-07T23:57:03.948Z,52.14
2019-04-07T23:59:38.942Z,51.92
